Pampa del Indio, Argentina
Current Conditions -  °F | °C
As of 10:00 PM on Sunday 21 Dec 2014 (Local Time) from SARF Reporting Station
Clear Clear  
Wind Chill: 72°   Ceiling: Unl
Heat Index: 72°   Visibility: 6mi
Dew Point: 70°   Wind: 3mph
Humidity: 94%   Direction: 230°SW
Pressure: 29.74"   Gusts: NA
Location:  26.03°S, 59.92°W
Report Text: SARF 220100Z 23003KT CAVOK 22/21 Q1007
Loading
Personal Weather Stations






























Interactive Weather Map New forecast layout! Learn more

10-Day Weather Forecast

Advertisements
Track Severe Weather on mobile